createdAt,value
2023-04-17T00:00:11.880Z,9.90
2023-04-17T00:02:41.239Z,9.90
2023-04-17T00:05:10.753Z,9.90
2023-04-17T00:07:39.798Z,9.90
2023-04-17T00:10:12.344Z,9.90
2023-04-17T00:12:40.754Z,9.80
2023-04-17T00:15:10.472Z,9.80
2023-04-17T00:17:38.955Z,9.80
2023-04-17T00:20:10.576Z,9.80
2023-04-17T00:22:39.139Z,9.80
2023-04-17T00:25:13.048Z,9.80
2023-04-17T00:27:42.401Z,9.80
2023-04-17T00:30:11.807Z,9.80
2023-04-17T00:32:40.266Z,9.70
2023-04-17T00:35:09.977Z,9.70
2023-04-17T00:37:38.448Z,9.70
2023-04-17T00:40:10.104Z,9.70
2023-04-17T00:42:38.570Z,9.70
2023-04-17T00:45:10.960Z,9.60
2023-04-17T00:47:40.089Z,9.60
2023-04-17T00:50:10.394Z,9.60
2023-04-17T00:52:39.002Z,9.50
2023-04-17T00:55:11.205Z,9.50
2023-04-17T00:57:39.801Z,9.50
2023-04-17T01:00:10.514Z,9.50
2023-04-17T01:02:39.861Z,9.50
2023-04-17T01:05:09.104Z,9.50
2023-04-17T01:07:38.812Z,9.40
2023-04-17T01:10:10.811Z,9.40
2023-04-17T01:12:39.382Z,9.40
2023-04-17T01:15:08.711Z,9.40
2023-04-17T01:17:37.201Z,9.40
2023-04-17T01:20:07.905Z,9.30
2023-04-17T01:22:36.513Z,9.30
2023-04-17T01:25:07.266Z,9.30
2023-04-17T01:27:36.355Z,9.30
2023-04-17T01:30:05.539Z,9.30
2023-04-17T01:32:34.035Z,9.20
2023-04-17T01:35:02.557Z,9.20
2023-04-17T01:37:31.417Z,9.20
2023-04-17T01:40:00.419Z,9.20
2023-04-17T01:42:30.304Z,9.20
2023-04-17T01:44:58.773Z,9.20
2023-04-17T01:47:27.285Z,9.20
2023-04-17T01:49:55.717Z,9.10
2023-04-17T01:52:24.209Z,9.20
2023-04-17T01:54:52.645Z,9.20
2023-04-17T01:57:21.156Z,9.10
2023-04-17T01:59:51.047Z,9.10
2023-04-17T02:02:19.710Z,9.10
2023-04-17T02:04:48.266Z,9.10
2023-04-17T02:07:16.830Z,9.10
2023-04-17T02:09:45.463Z,9.10
2023-04-17T02:12:13.962Z,9.00
2023-04-17T02:14:42.349Z,9.00
2023-04-17T02:17:12.205Z,9.10
2023-04-17T02:20:07.471Z,9.10
2023-04-17T02:22:36.061Z,9.10
2023-04-17T02:25:04.805Z,9.10
2023-04-17T02:27:33.768Z,9.10
2023-04-17T02:30:02.192Z,9.20
2023-04-17T02:32:32.089Z,9.10
2023-04-17T02:35:00.612Z,9.20
2023-04-17T02:37:29.054Z,9.10
2023-04-17T02:40:00.768Z,9.20
2023-04-17T02:42:29.139Z,9.20
2023-04-17T02:44:57.619Z,9.20
2023-04-17T02:47:26.494Z,9.20
2023-04-17T02:49:56.364Z,9.20
2023-04-17T02:52:25.062Z,9.30
2023-04-17T02:54:53.535Z,9.30
2023-04-17T02:57:21.968Z,9.30
2023-04-17T02:59:55.515Z,9.40
2023-04-17T03:02:24.507Z,9.40
2023-04-17T03:04:55.045Z,9.40
2023-04-17T03:07:42.165Z,9.40
2023-04-17T03:10:11.481Z,9.50
2023-04-17T03:12:40.412Z,9.50
2023-04-17T03:15:10.309Z,9.50
2023-04-17T03:17:38.979Z,9.50
2023-04-17T03:20:10.524Z,9.50
2023-04-17T03:22:39.062Z,9.50
2023-04-17T03:25:08.666Z,9.60
2023-04-17T03:27:37.081Z,9.60
2023-04-17T03:30:07.662Z,9.60
2023-04-17T03:32:36.183Z,9.60
2023-04-17T03:35:05.166Z,9.60
2023-04-17T03:37:34.998Z,9.60
2023-04-17T03:40:04.143Z,9.60
2023-04-17T03:42:32.617Z,9.70
2023-04-17T03:45:11.821Z,9.70
2023-04-17T03:47:40.545Z,9.70
2023-04-17T03:50:10.236Z,9.70
2023-04-17T03:53:04.775Z,9.70
2023-04-17T03:55:33.204Z,9.80
2023-04-17T03:58:01.772Z,9.80
2023-04-17T04:00:31.728Z,9.80
2023-04-17T04:03:00.621Z,9.80
2023-04-17T04:05:29.280Z,9.80
2023-04-17T04:07:57.845Z,9.80
2023-04-17T04:10:28.030Z,9.80
2023-04-17T04:12:59.363Z,9.80
2023-04-17T04:15:27.891Z,9.80
2023-04-17T04:17:56.566Z,9.80
2023-04-17T04:20:25.107Z,9.80
2023-04-17T04:23:20.993Z,9.90
2023-04-17T04:25:50.815Z,9.90
2023-04-17T04:28:19.269Z,9.90
2023-04-17T04:30:50.612Z,9.90
2023-04-17T04:33:20.510Z,9.90
2023-04-17T04:35:51.255Z,9.90
2023-04-17T04:38:20.100Z,9.90
2023-04-17T04:40:52.242Z,10.00
2023-04-17T04:43:22.453Z,10.00
2023-04-17T04:45:51.055Z,10.00
2023-04-17T04:48:19.515Z,10.00
2023-04-17T04:50:48.091Z,10.10
2023-04-17T04:53:16.633Z,10.10
2023-04-17T04:55:45.155Z,10.10
2023-04-17T04:58:15.063Z,10.10
2023-04-17T05:00:44.073Z,10.20
2023-04-17T05:03:12.888Z,10.20
2023-04-17T05:05:43.381Z,10.20
2023-04-17T05:08:11.860Z,10.20
2023-04-17T05:10:44.763Z,10.20
2023-04-17T05:13:14.645Z,10.20
2023-04-17T05:15:43.066Z,10.20
2023-04-17T05:18:11.581Z,10.20
2023-04-17T05:20:40.099Z,10.30
2023-04-17T05:23:09.007Z,10.40
2023-04-17T05:25:37.442Z,10.40
2023-04-17T05:28:06.359Z,10.40
2023-04-17T05:30:36.858Z,10.50
2023-04-17T05:33:08.412Z,10.50
2023-04-17T05:35:37.444Z,10.50
2023-04-17T05:38:07.947Z,10.50
2023-04-17T05:40:36.588Z,10.60
2023-04-17T05:43:09.812Z,10.60
2023-04-17T05:45:41.519Z,10.70
2023-04-17T05:48:10.173Z,10.80
2023-04-17T05:50:38.902Z,10.80
2023-04-17T05:53:07.563Z,10.80
2023-04-17T05:55:36.009Z,10.90
2023-04-17T05:58:16.815Z,10.90
2023-04-17T06:00:53.564Z,10.80
2023-04-17T06:03:22.521Z,10.90
2023-04-17T06:05:52.105Z,10.90
2023-04-17T06:08:20.712Z,10.90
2023-04-17T06:10:50.279Z,10.90
2023-04-17T06:13:18.840Z,10.90
2023-04-17T06:15:47.295Z,10.90
2023-04-17T06:18:17.712Z,10.90
2023-04-17T06:20:46.571Z,10.90
2023-04-17T06:23:14.992Z,10.90
2023-04-17T06:25:43.550Z,11.00
2023-04-17T06:28:11.980Z,11.00
2023-04-17T06:30:40.596Z,11.00
2023-04-17T06:33:09.050Z,11.10
2023-04-17T06:35:39.065Z,11.10
2023-04-17T06:38:07.621Z,11.20
2023-04-17T06:40:36.655Z,11.20
2023-04-17T06:43:05.131Z,11.30
2023-04-17T06:45:34.722Z,11.30
2023-04-17T06:48:18.921Z,11.40
2023-04-17T06:50:49.219Z,11.50
2023-04-17T06:53:17.877Z,11.60
2023-04-17T06:55:46.321Z,11.70
2023-04-17T06:58:15.180Z,11.80
2023-04-17T07:00:43.660Z,11.90
2023-04-17T07:03:13.930Z,11.90
2023-04-17T07:05:45.132Z,12.00
2023-04-17T07:08:16.097Z,12.10
2023-04-17T07:10:44.561Z,12.20
2023-04-17T07:13:13.076Z,12.20
2023-04-17T07:15:41.824Z,12.30
2023-04-17T07:18:10.496Z,12.30
2023-04-17T07:20:38.896Z,12.30
2023-04-17T07:23:07.374Z,12.30
2023-04-17T07:25:37.187Z,12.30
2023-04-17T07:28:05.734Z,12.40
2023-04-17T07:30:34.436Z,12.40
2023-04-17T07:33:03.397Z,12.40
2023-04-17T07:35:32.205Z,12.40
2023-04-17T07:38:03.594Z,12.50
2023-04-17T07:40:33.391Z,12.50
2023-04-17T07:43:03.313Z,12.60
2023-04-17T07:45:33.767Z,12.60
2023-04-17T07:48:02.273Z,12.60
2023-04-17T07:50:30.953Z,12.60
2023-04-17T07:52:59.575Z,12.60
2023-04-17T07:55:28.022Z,12.60
2023-04-17T07:57:56.651Z,12.60
2023-04-17T08:00:26.550Z,12.60
2023-04-17T08:02:55.210Z,12.60
2023-04-17T08:05:24.137Z,12.60
2023-04-17T08:07:52.704Z,12.60
2023-04-17T08:10:21.358Z,12.60
2023-04-17T08:12:49.829Z,12.70
2023-04-17T08:15:22.282Z,12.80
2023-04-17T08:17:52.163Z,12.80
2023-04-17T08:20:20.920Z,12.90
2023-04-17T08:22:52.526Z,13.00
2023-04-17T08:25:26.405Z,13.10
2023-04-17T08:27:54.890Z,13.10
2023-04-17T08:30:23.487Z,13.00
2023-04-17T08:32:55.545Z,13.00
2023-04-17T08:35:24.410Z,13.10
2023-04-17T08:37:55.456Z,13.20
2023-04-17T08:40:26.197Z,13.10
2023-04-17T08:42:55.968Z,13.10
2023-04-17T08:45:25.416Z,13.10
2023-04-17T08:47:55.447Z,13.10
2023-04-17T08:50:24.215Z,13.10
2023-04-17T08:52:53.816Z,13.10
2023-04-17T08:55:29.059Z,13.10
2023-04-17T08:58:00.875Z,13.10
2023-04-17T09:00:32.008Z,13.00
2023-04-17T09:03:04.834Z,12.90
2023-04-17T09:05:34.410Z,12.80
2023-04-17T09:08:12.585Z,12.70
2023-04-17T09:10:43.537Z,12.70
2023-04-17T09:13:14.732Z,12.70
2023-04-17T09:15:44.906Z,12.80
2023-04-17T09:18:33.615Z,12.80
2023-04-17T09:21:03.962Z,12.90
2023-04-17T09:23:47.062Z,13.00
2023-04-17T09:26:18.321Z,13.20
2023-04-17T09:29:11.626Z,13.30
2023-04-17T09:31:43.012Z,13.50
2023-04-17T09:34:16.336Z,13.50
2023-04-17T09:36:45.559Z,13.50
2023-04-17T09:39:24.016Z,13.40
2023-04-17T09:42:03.782Z,13.30
2023-04-17T09:44:36.834Z,13.30
2023-04-17T09:47:07.835Z,13.20
2023-04-17T09:49:58.038Z,13.20
2023-04-17T09:52:26.593Z,13.20
2023-04-17T09:54:56.921Z,13.20
2023-04-17T09:57:25.434Z,13.10
2023-04-17T09:59:59.574Z,13.10
2023-04-17T10:02:28.834Z,13.10
2023-04-17T10:04:58.808Z,13.00
2023-04-17T10:07:28.022Z,13.00
2023-04-17T10:09:56.606Z,13.00
2023-04-17T10:12:25.421Z,13.00
2023-04-17T10:14:54.420Z,12.90
2023-04-17T10:17:28.607Z,12.80
2023-04-17T10:20:39.216Z,12.70
2023-04-17T10:23:31.450Z,12.80
2023-04-17T10:26:36.003Z,12.70
2023-04-17T10:29:04.548Z,12.80
2023-04-17T10:32:29.013Z,12.80
2023-04-17T10:34:59.845Z,12.80
2023-04-17T10:38:05.532Z,12.90
2023-04-17T10:40:36.360Z,13.10
2023-04-17T10:43:28.128Z,13.20
2023-04-17T10:46:01.994Z,13.40
2023-04-17T10:48:34.867Z,13.50
2023-04-17T10:51:38.956Z,13.60
2023-04-17T10:54:15.726Z,13.70
2023-04-17T10:56:48.396Z,13.90
2023-04-17T10:59:18.938Z,14.00
2023-04-17T11:02:05.040Z,14.20
2023-04-17T11:04:34.787Z,14.40
2023-04-17T11:07:03.468Z,14.60
2023-04-17T11:09:33.351Z,14.90
2023-04-17T11:12:02.963Z,15.00
2023-04-17T11:14:32.378Z,15.20
2023-04-17T11:17:02.390Z,15.40
2023-04-17T11:19:33.316Z,15.70
2023-04-17T11:22:02.844Z,15.60
2023-04-17T11:24:33.757Z,15.30
2023-04-17T11:27:03.795Z,15.10
2023-04-17T11:29:32.828Z,15.00
2023-04-17T11:32:01.468Z,14.90
2023-04-17T11:34:30.435Z,14.70
2023-04-17T11:37:01.513Z,14.60
2023-04-17T11:39:34.361Z,14.50
2023-04-17T11:42:04.134Z,14.40
2023-04-17T11:44:32.664Z,14.40
2023-04-17T11:47:03.476Z,14.40
2023-04-17T11:49:34.176Z,14.40
2023-04-17T11:52:04.290Z,14.30
2023-04-17T11:54:38.605Z,14.30
2023-04-17T11:57:13.177Z,14.40
2023-04-17T11:59:44.723Z,14.50
2023-04-17T12:02:15.270Z,14.50
2023-04-17T12:04:44.117Z,14.60
2023-04-17T12:07:24.933Z,14.60
2023-04-17T12:09:58.757Z,14.70
2023-04-17T12:12:27.400Z,14.70
2023-04-17T12:14:55.871Z,14.80
2023-04-17T12:17:24.406Z,14.90
2023-04-17T12:19:52.820Z,14.90
2023-04-17T12:22:21.467Z,14.90
2023-04-17T12:25:16.404Z,15.00
2023-04-17T12:27:44.841Z,15.10
2023-04-17T12:30:16.027Z,15.00
2023-04-17T12:32:48.743Z,15.10
2023-04-17T12:35:18.867Z,15.20
2023-04-17T12:37:49.478Z,15.20
2023-04-17T12:40:23.027Z,15.20
2023-04-17T12:42:52.970Z,15.20
2023-04-17T12:45:21.677Z,15.20
2023-04-17T12:47:50.321Z,15.20
2023-04-17T12:50:18.816Z,15.20
2023-04-17T12:53:14.212Z,15.00
2023-04-17T12:55:44.868Z,14.80
2023-04-17T12:58:15.132Z,14.80
2023-04-17T13:00:44.704Z,14.70
2023-04-17T13:03:13.488Z,14.70
2023-04-17T13:05:42.098Z,14.60
2023-04-17T13:08:14.824Z,14.60
2023-04-17T13:10:44.830Z,14.60
2023-04-17T13:13:13.285Z,14.60
2023-04-17T13:15:41.796Z,14.60
2023-04-17T13:18:10.526Z,14.70
2023-04-17T13:20:39.219Z,14.70
2023-04-17T13:23:07.662Z,14.60
2023-04-17T13:25:36.863Z,14.60
2023-04-17T13:28:06.698Z,14.50
2023-04-17T13:30:37.099Z,14.60
2023-04-17T13:33:05.929Z,14.60
2023-04-17T13:35:35.046Z,14.60
2023-04-17T13:38:03.643Z,14.60
2023-04-17T13:40:32.186Z,14.60
2023-04-17T13:43:01.103Z,14.60
2023-04-17T13:45:30.989Z,14.40
2023-04-17T13:48:00.386Z,14.40
2023-04-17T13:50:29.158Z,14.40
2023-04-17T13:52:57.613Z,14.40
2023-04-17T13:55:26.148Z,14.40
2023-04-17T13:57:54.904Z,14.40
2023-04-17T14:00:23.776Z,14.30
2023-04-17T14:02:53.719Z,14.30
2023-04-17T14:05:22.290Z,14.20
2023-04-17T14:07:50.808Z,14.30
2023-04-17T14:10:19.438Z,14.30
2023-04-17T14:12:47.861Z,14.20
2023-04-17T14:15:16.426Z,14.20
2023-04-17T14:17:45.177Z,14.20
2023-04-17T14:20:16.798Z,14.10
2023-04-17T14:22:45.614Z,14.10
2023-04-17T14:25:14.158Z,14.20
2023-04-17T14:27:42.774Z,14.20
2023-04-17T14:30:11.717Z,14.10
2023-04-17T14:32:40.312Z,14.20
2023-04-17T14:35:09.678Z,14.20
2023-04-17T14:37:39.491Z,14.20
2023-04-17T14:40:09.722Z,14.20
2023-04-17T14:42:47.353Z,14.10
2023-04-17T14:45:21.774Z,14.10
2023-04-17T14:47:50.605Z,14.20
2023-04-17T14:50:19.415Z,14.20
2023-04-17T14:52:49.343Z,14.30
2023-04-17T14:55:18.074Z,14.20
2023-04-17T14:57:46.548Z,14.30
2023-04-17T15:00:16.889Z,14.30
2023-04-17T15:02:45.455Z,14.30
2023-04-17T15:05:16.584Z,14.20
2023-04-17T15:07:45.077Z,14.30
2023-04-17T15:10:15.953Z,14.30
2023-04-17T15:12:45.105Z,14.30
2023-04-17T15:15:13.966Z,14.30
2023-04-17T15:17:42.744Z,14.40
2023-04-17T15:20:11.913Z,14.40
2023-04-17T15:22:40.301Z,14.40
2023-04-17T15:25:09.283Z,14.50
2023-04-17T15:27:39.118Z,14.50
2023-04-17T15:30:09.711Z,14.50
2023-04-17T15:32:38.118Z,14.50
2023-04-17T15:35:07.416Z,14.50
2023-04-17T15:37:35.896Z,14.40
2023-04-17T15:40:04.593Z,14.30
2023-04-17T15:42:33.014Z,14.30
2023-04-17T15:45:03.036Z,14.30
2023-04-17T15:47:31.673Z,14.30
2023-04-17T15:50:00.410Z,14.30
2023-04-17T15:52:28.940Z,14.30
2023-04-17T15:54:57.366Z,14.20
2023-04-17T15:57:25.910Z,14.20
2023-04-17T15:59:54.385Z,14.30
2023-04-17T16:02:24.340Z,14.30
2023-04-17T16:04:52.853Z,14.30
2023-04-17T16:07:21.328Z,14.40
2023-04-17T16:09:50.885Z,14.40
2023-04-17T16:12:19.340Z,14.30
2023-04-17T16:14:48.057Z,14.30
2023-04-17T16:17:16.580Z,14.20
2023-04-17T16:19:47.726Z,14.20
2023-04-17T16:22:19.805Z,14.20
2023-04-17T16:24:48.276Z,14.20
2023-04-17T16:27:16.734Z,14.10
2023-04-17T16:29:45.824Z,14.00
2023-04-17T16:32:15.501Z,14.00
2023-04-17T16:34:45.526Z,13.90
2023-04-17T16:37:14.847Z,13.90
2023-04-17T16:39:43.338Z,13.80
2023-04-17T16:42:11.975Z,13.70
2023-04-17T16:44:40.502Z,13.60
2023-04-17T16:47:14.092Z,13.60
2023-04-17T16:49:43.146Z,13.60
2023-04-17T16:52:13.047Z,13.50
2023-04-17T16:54:41.485Z,13.40
2023-04-17T16:57:11.102Z,13.30
2023-04-17T16:59:39.568Z,13.30
2023-04-17T17:02:08.350Z,13.20
2023-04-17T17:04:36.880Z,13.10
2023-04-17T17:07:06.151Z,13.10
2023-04-17T17:09:36.019Z,13.00
2023-04-17T17:12:04.650Z,13.00
2023-04-17T17:14:33.215Z,12.90
2023-04-17T17:17:01.840Z,12.80
2023-04-17T17:19:30.471Z,12.70
2023-04-17T17:21:58.904Z,12.70
2023-04-17T17:24:27.473Z,12.70
2023-04-17T17:26:57.310Z,12.70
2023-04-17T17:29:25.725Z,12.70
2023-04-17T17:31:54.211Z,12.70
2023-04-17T17:34:26.487Z,12.60
2023-04-17T17:36:55.679Z,12.60
2023-04-17T17:39:24.224Z,12.60
2023-04-17T17:42:15.708Z,12.60
2023-04-17T17:44:44.100Z,12.60
2023-04-17T17:47:12.608Z,12.50
2023-04-17T17:49:41.094Z,12.50
2023-04-17T17:52:09.985Z,12.60
2023-04-17T17:54:38.714Z,12.50
2023-04-17T17:57:07.695Z,12.50
2023-04-17T17:59:37.668Z,12.50
2023-04-17T18:02:06.265Z,12.40
2023-04-17T18:04:34.911Z,12.30
2023-04-17T18:07:03.716Z,12.30
2023-04-17T18:09:32.203Z,12.20
2023-04-17T18:12:01.979Z,12.20
2023-04-17T18:14:57.717Z,12.20
2023-04-17T18:17:26.398Z,12.00
2023-04-17T18:19:54.887Z,11.90
2023-04-17T18:22:23.398Z,11.80
2023-04-17T18:24:54.537Z,11.70
2023-04-17T18:27:23.459Z,11.50
2023-04-17T18:29:51.937Z,11.50
2023-04-17T18:32:21.801Z,11.40
2023-04-17T18:34:51.269Z,11.40
2023-04-17T18:37:19.716Z,11.40
2023-04-17T18:40:13.532Z,11.40
2023-04-17T18:42:42.054Z,11.30
2023-04-17T18:45:13.692Z,11.30
2023-04-17T18:47:43.623Z,11.30
2023-04-17T18:50:12.914Z,11.30
2023-04-17T18:52:44.053Z,11.30
2023-04-17T18:55:17.522Z,11.20
2023-04-17T18:57:46.031Z,11.20
2023-04-17T19:00:15.293Z,11.10
2023-04-17T19:02:45.343Z,11.10
2023-04-17T19:05:13.963Z,11.10
2023-04-17T19:07:42.536Z,11.00
2023-04-17T19:10:12.424Z,11.00
2023-04-17T19:12:42.946Z,11.00
2023-04-17T19:15:13.391Z,10.90
2023-04-17T19:17:41.871Z,10.90
2023-04-17T19:20:13.367Z,10.90
2023-04-17T19:22:41.828Z,10.90
2023-04-17T19:25:11.324Z,10.90
2023-04-17T19:27:39.839Z,10.90
2023-04-17T19:30:11.051Z,11.00
2023-04-17T19:32:39.547Z,11.00
2023-04-17T19:35:09.690Z,11.00
2023-04-17T19:37:39.620Z,11.00
2023-04-17T19:40:21.231Z,11.00
2023-04-17T19:42:53.076Z,11.00
2023-04-17T19:45:21.633Z,11.00
2023-04-17T19:47:55.083Z,11.00
2023-04-17T19:50:25.354Z,11.00
2023-04-17T19:52:56.634Z,10.90
2023-04-17T19:55:25.357Z,10.90
2023-04-17T19:57:56.137Z,10.90
2023-04-17T20:00:24.750Z,10.90
2023-04-17T20:02:53.532Z,10.80
2023-04-17T20:05:22.124Z,10.80
2023-04-17T20:07:50.719Z,10.80
2023-04-17T20:10:20.667Z,10.80
2023-04-17T20:12:49.089Z,10.80
2023-04-17T20:15:19.882Z,10.80
2023-04-17T20:17:48.507Z,10.80
2023-04-17T20:20:16.942Z,10.80
2023-04-17T20:22:45.432Z,10.80
2023-04-17T20:25:14.633Z,10.80
2023-04-17T20:27:44.437Z,10.80
2023-04-17T20:30:14.620Z,10.80
2023-04-17T20:32:43.664Z,10.80
2023-04-17T20:35:12.110Z,10.80
2023-04-17T20:37:44.249Z,10.80
2023-04-17T20:40:13.935Z,10.80
2023-04-17T20:42:46.748Z,10.80
2023-04-17T20:45:15.625Z,10.80
2023-04-17T20:47:55.905Z,10.80
2023-04-17T20:50:25.936Z,10.80
2023-04-17T20:52:54.490Z,10.80
2023-04-17T20:55:24.236Z,10.80
2023-04-17T20:57:54.150Z,10.80
2023-04-17T21:00:22.796Z,10.80
2023-04-17T21:02:51.288Z,10.80
2023-04-17T21:05:19.878Z,10.80
2023-04-17T21:07:50.121Z,10.80
2023-04-17T21:10:20.903Z,10.80
2023-04-17T21:12:49.340Z,10.80
2023-04-17T21:15:19.524Z,10.80
2023-04-17T21:17:48.108Z,10.80
2023-04-17T21:20:16.660Z,10.80
2023-04-17T21:22:45.105Z,10.80
2023-04-17T21:25:13.592Z,10.80
2023-04-17T21:27:43.752Z,10.80
2023-04-17T21:30:12.841Z,10.80
2023-04-17T21:32:43.167Z,10.80
2023-04-17T21:35:11.743Z,10.80
2023-04-17T21:37:40.502Z,10.80
2023-04-17T21:40:10.708Z,10.80
2023-04-17T21:42:39.155Z,10.80
2023-04-17T21:45:09.292Z,10.70
2023-04-17T21:47:37.855Z,10.80
2023-04-17T21:50:20.974Z,10.80
2023-04-17T21:52:49.459Z,10.80
2023-04-17T21:55:17.956Z,10.80
2023-04-17T21:57:46.727Z,10.80
2023-04-17T22:00:17.640Z,10.70
2023-04-17T22:03:11.207Z,10.70
2023-04-17T22:05:42.242Z,10.60
2023-04-17T22:08:10.827Z,10.60
2023-04-17T22:10:39.354Z,10.60
2023-04-17T22:13:07.762Z,10.60
2023-04-17T22:15:36.400Z,10.60
2023-04-17T22:18:05.249Z,10.60
2023-04-17T22:20:33.725Z,10.70
2023-04-17T22:23:03.712Z,10.70
2023-04-17T22:25:32.119Z,10.70
2023-04-17T22:28:00.696Z,10.70
2023-04-17T22:30:29.189Z,10.70
2023-04-17T22:32:57.760Z,10.60
2023-04-17T22:35:42.266Z,10.60
2023-04-17T22:38:12.152Z,10.60
2023-04-17T22:40:41.379Z,10.50
2023-04-17T22:43:09.845Z,10.60
2023-04-17T22:45:38.303Z,10.60
2023-04-17T22:48:07.391Z,10.50
2023-04-17T22:50:37.859Z,10.50
2023-04-17T22:53:06.928Z,10.50
2023-04-17T22:55:37.168Z,10.50
2023-04-17T22:58:05.991Z,10.50
2023-04-17T23:00:34.823Z,10.50
2023-04-17T23:03:03.418Z,10.50
2023-04-17T23:05:32.029Z,10.50
2023-04-17T23:08:00.415Z,10.50
2023-04-17T23:10:28.938Z,10.50
2023-04-17T23:12:58.807Z,10.50
2023-04-17T23:15:27.305Z,10.50
2023-04-17T23:17:56.015Z,10.40
2023-04-17T23:20:25.619Z,10.50
2023-04-17T23:22:54.117Z,10.40
2023-04-17T23:25:22.658Z,10.40
2023-04-17T23:27:51.108Z,10.40
2023-04-17T23:30:21.465Z,10.40
2023-04-17T23:32:51.212Z,10.40
2023-04-17T23:35:21.261Z,10.40
2023-04-17T23:37:50.003Z,10.40
2023-04-17T23:40:18.857Z,10.40
2023-04-17T23:42:47.373Z,10.40
2023-04-17T23:45:15.792Z,10.40
2023-04-17T23:47:45.709Z,10.50
2023-04-17T23:50:14.341Z,10.50
2023-04-17T23:52:43.985Z,10.50
2023-04-17T23:55:12.421Z,10.50
2023-04-17T23:57:40.847Z,10.40
